createdAt,value
2022-10-17T00:00:51.099Z,17.80
2022-10-17T00:03:19.247Z,17.80
2022-10-17T00:05:49.555Z,17.80
2022-10-17T00:08:19.785Z,17.80
2022-10-17T00:10:56.385Z,17.40
2022-10-17T00:13:24.410Z,17.80
2022-10-17T00:15:52.385Z,17.80
2022-10-17T00:18:20.540Z,17.80
2022-10-17T00:20:48.339Z,14.90
2022-10-17T00:23:18.172Z,17.80
2022-10-17T00:25:47.467Z,17.70
2022-10-17T00:28:16.648Z,17.70
2022-10-17T00:30:44.493Z,17.70
2022-10-17T00:33:12.378Z,17.70
2022-10-17T00:35:40.183Z,19.90
2022-10-17T00:38:07.955Z,17.70
2022-10-17T00:40:35.737Z,17.70
2022-10-17T00:43:04.900Z,17.60
2022-10-17T00:45:33.146Z,17.80
2022-10-17T00:48:05.017Z,17.60
2022-10-17T00:50:34.186Z,17.60
2022-10-17T00:53:05.234Z,18.80
2022-10-17T00:55:35.740Z,17.60
2022-10-17T00:58:06.403Z,17.60
2022-10-17T01:00:34.464Z,17.50
2022-10-17T01:03:02.403Z,17.60
2022-10-17T01:05:30.963Z,17.50
2022-10-17T01:07:58.886Z,17.50
2022-10-17T01:10:34.340Z,17.50
2022-10-17T01:13:13.067Z,17.50
2022-10-17T01:15:53.596Z,17.50
2022-10-17T01:18:33.849Z,17.50
2022-10-17T01:21:21.872Z,17.50
2022-10-17T01:24:14.855Z,17.60
2022-10-17T01:26:59.927Z,18.60
2022-10-17T01:29:48.177Z,17.60
2022-10-17T01:32:23.259Z,17.60
2022-10-17T01:34:58.262Z,17.60
2022-10-17T01:37:31.537Z,17.60
2022-10-17T01:40:04.881Z,17.60
2022-10-17T01:42:37.846Z,17.60
2022-10-17T01:45:11.306Z,17.60
2022-10-17T01:47:42.610Z,17.60
2022-10-17T01:50:16.777Z,17.60
2022-10-17T01:52:49.312Z,17.80
2022-10-17T01:55:22.008Z,17.50
2022-10-17T01:57:53.849Z,17.50
2022-10-17T02:00:24.798Z,17.50
2022-10-17T02:02:58.303Z,17.50
2022-10-17T02:05:30.306Z,17.60
2022-10-17T02:07:58.300Z,17.60
2022-10-17T02:10:33.578Z,17.60
2022-10-17T02:13:10.248Z,17.60
2022-10-17T02:16:09.755Z,17.60
2022-10-17T02:18:59.096Z,17.00
2022-10-17T02:21:35.135Z,17.60
2022-10-17T02:24:10.353Z,17.60
2022-10-17T02:26:44.990Z,17.60
2022-10-17T02:29:17.927Z,17.60
2022-10-17T02:31:50.604Z,17.60
2022-10-17T02:34:23.742Z,17.60
2022-10-17T02:36:54.862Z,17.60
2022-10-17T02:39:24.277Z,17.60
2022-10-17T02:41:53.501Z,17.60
2022-10-17T02:44:22.778Z,17.60
2022-10-17T02:46:56.042Z,17.60
2022-10-17T02:49:29.478Z,17.60
2022-10-17T02:52:02.666Z,17.60
2022-10-17T02:54:38.111Z,17.60
2022-10-17T02:57:13.233Z,17.60
2022-10-17T02:59:45.202Z,17.70
2022-10-17T03:02:13.262Z,17.80
2022-10-17T03:04:45.473Z,17.80
2022-10-17T03:07:13.467Z,17.90
2022-10-17T03:09:41.470Z,18.00
2022-10-17T03:12:09.520Z,18.00
2022-10-17T03:14:37.382Z,18.20
2022-10-17T03:17:05.360Z,18.10
2022-10-17T03:19:33.386Z,20.10
2022-10-17T03:22:02.573Z,18.20
2022-10-17T03:24:30.510Z,18.20
2022-10-17T03:26:58.309Z,20.30
2022-10-17T03:29:26.299Z,18.20
2022-10-17T03:31:54.193Z,19.40
2022-10-17T03:34:22.271Z,18.30
2022-10-17T03:36:50.312Z,18.30
2022-10-17T03:39:19.689Z,18.30
2022-10-17T03:41:47.682Z,18.40
2022-10-17T03:44:15.502Z,20.40
2022-10-17T03:46:43.307Z,18.40
2022-10-17T03:49:11.663Z,18.40
2022-10-17T03:51:39.620Z,18.40
2022-10-17T03:54:09.888Z,18.70
2022-10-17T03:56:39.205Z,21.90
2022-10-17T03:59:07.047Z,18.40
2022-10-17T04:01:34.911Z,18.40
2022-10-17T04:04:02.926Z,18.40
2022-10-17T04:06:30.743Z,18.50
2022-10-17T04:08:58.523Z,18.50
2022-10-17T04:11:26.455Z,18.50
2022-10-17T04:13:57.040Z,18.50
2022-10-17T04:16:25.268Z,20.50
2022-10-17T04:18:55.857Z,17.10
2022-10-17T04:21:24.756Z,18.50
2022-10-17T04:23:55.830Z,18.50
2022-10-17T04:26:24.011Z,18.50
2022-10-17T04:28:52.152Z,18.50
2022-10-17T04:31:21.458Z,18.50
2022-10-17T04:33:50.533Z,18.60
2022-10-17T04:36:23.626Z,18.50
2022-10-17T04:38:51.609Z,18.50
2022-10-17T04:41:20.420Z,18.50
2022-10-17T04:43:51.085Z,18.50
2022-10-17T04:46:20.802Z,18.50
2022-10-17T04:48:48.578Z,18.50
2022-10-17T04:51:20.692Z,18.50
2022-10-17T04:53:51.033Z,18.50
2022-10-17T04:56:20.436Z,18.50
2022-10-17T04:58:49.315Z,18.50
2022-10-17T05:01:19.100Z,20.90
2022-10-17T05:03:48.916Z,18.50
2022-10-17T05:06:19.391Z,18.60
2022-10-17T05:08:47.782Z,18.60
2022-10-17T05:11:19.534Z,18.60
2022-10-17T05:13:52.347Z,18.60
2022-10-17T05:16:20.316Z,18.60
2022-10-17T05:18:52.976Z,18.60
2022-10-17T05:21:22.433Z,21.50
2022-10-17T05:23:50.676Z,18.70
2022-10-17T05:26:18.940Z,18.70
2022-10-17T05:28:47.127Z,18.70
2022-10-17T05:31:17.740Z,18.70
2022-10-17T05:33:45.823Z,21.50
2022-10-17T05:36:15.216Z,18.70
2022-10-17T05:38:43.127Z,18.70
2022-10-17T05:41:11.739Z,18.70
2022-10-17T05:43:39.609Z,16.40
2022-10-17T05:46:07.860Z,18.80
2022-10-17T05:48:36.302Z,18.80
2022-10-17T05:51:07.765Z,18.80
2022-10-17T05:53:38.727Z,18.80
2022-10-17T05:56:09.162Z,18.80
2022-10-17T05:58:56.217Z,18.80
2022-10-17T06:01:25.594Z,21.30
2022-10-17T06:03:53.559Z,18.80
2022-10-17T06:06:21.487Z,18.90
2022-10-17T06:08:50.610Z,18.90
2022-10-17T06:11:18.457Z,18.90
2022-10-17T06:13:46.272Z,20.70
2022-10-17T06:16:14.107Z,18.90
2022-10-17T06:18:41.930Z,18.90
2022-10-17T06:21:11.523Z,18.90
2022-10-17T06:23:39.889Z,18.90
2022-10-17T06:26:09.440Z,18.90
2022-10-17T06:28:37.821Z,18.90
2022-10-17T06:31:07.739Z,18.90
2022-10-17T06:33:35.835Z,18.90
2022-10-17T06:36:04.533Z,21.50
2022-10-17T06:38:32.854Z,18.90
2022-10-17T06:41:11.040Z,18.90
2022-10-17T06:43:39.330Z,18.90
2022-10-17T06:46:07.381Z,18.90
2022-10-17T06:48:35.438Z,18.90
2022-10-17T06:51:04.521Z,18.90
2022-10-17T06:53:34.200Z,18.90
2022-10-17T06:56:03.940Z,19.00
2022-10-17T06:58:41.999Z,19.00
2022-10-17T07:01:14.084Z,21.40
2022-10-17T07:03:43.522Z,19.00
2022-10-17T07:06:11.945Z,19.00
2022-10-17T07:08:43.154Z,20.10
2022-10-17T07:11:12.546Z,18.90
2022-10-17T07:13:41.925Z,19.70
2022-10-17T07:16:10.235Z,19.00
2022-10-17T07:18:38.768Z,19.00
2022-10-17T07:21:08.482Z,22.10
2022-10-17T07:23:37.438Z,19.20
2022-10-17T07:26:07.778Z,19.20
2022-10-17T07:28:36.322Z,19.30
2022-10-17T07:31:06.741Z,19.30
2022-10-17T07:33:35.079Z,19.30
2022-10-17T07:36:03.496Z,19.40
2022-10-17T07:38:31.648Z,19.40
2022-10-17T07:41:01.077Z,19.40
2022-10-17T07:43:29.657Z,19.40
2022-10-17T07:45:57.971Z,19.40
2022-10-17T07:48:27.236Z,19.40
2022-10-17T07:50:55.236Z,19.40
2022-10-17T07:53:23.422Z,19.40
2022-10-17T07:55:51.552Z,19.40
2022-10-17T07:58:21.668Z,19.40
2022-10-17T08:03:19.144Z,19.50
2022-10-17T08:05:48.323Z,19.40
2022-10-17T08:08:16.230Z,19.40
2022-10-17T08:10:44.219Z,19.40
2022-10-17T08:13:11.993Z,19.40
2022-10-17T08:15:39.976Z,19.50
2022-10-17T08:18:07.829Z,19.50
2022-10-17T08:20:36.328Z,19.50
2022-10-17T08:23:05.508Z,19.50
2022-10-17T08:25:33.453Z,19.50
2022-10-17T08:28:01.430Z,19.50
2022-10-17T08:30:30.624Z,19.50
2022-10-17T08:32:58.520Z,19.60
2022-10-17T08:37:54.500Z,19.60
2022-10-17T08:40:26.428Z,19.60
2022-10-17T08:43:12.548Z,19.70
2022-10-17T08:45:43.947Z,19.70
2022-10-17T08:48:15.658Z,19.70
2022-10-17T08:50:47.552Z,19.70
2022-10-17T08:53:21.376Z,19.70
2022-10-17T08:55:52.805Z,19.80
2022-10-17T08:58:22.969Z,19.80
2022-10-17T09:01:02.529Z,19.80
2022-10-17T09:03:55.494Z,19.80
2022-10-17T09:06:29.900Z,19.90
2022-10-17T09:09:23.208Z,19.80
2022-10-17T09:12:04.063Z,19.80
2022-10-17T09:14:51.884Z,19.80
2022-10-17T09:17:31.867Z,19.90
2022-10-17T09:20:04.655Z,19.80
2022-10-17T09:22:43.853Z,19.90
2022-10-17T09:25:14.818Z,20.00
2022-10-17T09:27:47.610Z,20.00
2022-10-17T09:30:50.775Z,20.10
2022-10-17T09:33:35.196Z,20.10
2022-10-17T09:36:06.193Z,20.10
2022-10-17T09:38:40.456Z,20.10
2022-10-17T09:41:42.733Z,20.10
2022-10-17T09:44:17.139Z,20.00
2022-10-17T09:46:58.161Z,20.10
2022-10-17T09:49:33.107Z,20.10
2022-10-17T09:52:01.969Z,20.10
2022-10-17T09:54:36.952Z,20.10
2022-10-17T09:57:07.279Z,20.10
2022-10-17T09:59:38.388Z,20.20
2022-10-17T10:02:15.993Z,20.20
2022-10-17T10:05:10.302Z,20.20
2022-10-17T10:07:39.880Z,20.20
2022-10-17T10:10:23.723Z,20.30
2022-10-17T10:13:05.698Z,20.30
2022-10-17T10:15:38.680Z,20.30
2022-10-17T10:21:13.799Z,20.30
2022-10-17T10:23:43.186Z,20.30
2022-10-17T10:26:23.741Z,20.40
2022-10-17T10:28:58.411Z,20.40
2022-10-17T10:31:37.093Z,20.40
2022-10-17T10:34:16.679Z,20.40
2022-10-17T10:36:55.629Z,20.40
2022-10-17T10:39:30.108Z,20.40
2022-10-17T10:41:58.238Z,20.40
2022-10-17T10:44:30.186Z,20.40
2022-10-17T10:47:19.797Z,21.50
2022-10-17T10:49:47.659Z,20.40
2022-10-17T10:52:26.082Z,20.40
2022-10-17T10:55:04.548Z,20.40
2022-10-17T10:57:35.914Z,20.40
2022-10-17T11:00:12.516Z,20.50
2022-10-17T11:02:49.588Z,20.40
2022-10-17T11:05:22.838Z,20.40
2022-10-17T11:08:00.211Z,20.40
2022-10-17T11:10:36.910Z,20.50
2022-10-17T11:13:07.662Z,20.50
2022-10-17T11:15:41.371Z,20.50
2022-10-17T11:18:17.245Z,20.50
2022-10-17T11:20:53.646Z,20.60
2022-10-17T11:23:29.076Z,20.60
2022-10-17T11:25:59.759Z,20.60
2022-10-17T11:28:27.786Z,22.20
2022-10-17T11:31:02.382Z,20.60
2022-10-17T11:33:45.166Z,20.70
2022-10-17T11:36:17.673Z,20.60
2022-10-17T11:38:49.748Z,20.60
2022-10-17T11:41:23.399Z,20.70
2022-10-17T11:43:56.158Z,20.70
2022-10-17T11:46:25.810Z,20.70
2022-10-17T11:49:05.771Z,20.60
2022-10-17T11:52:02.983Z,20.60
2022-10-17T11:54:36.509Z,20.60
2022-10-17T11:57:20.710Z,20.70
2022-10-17T11:59:58.072Z,20.70
2022-10-17T12:02:34.216Z,20.70
2022-10-17T12:05:12.542Z,20.70
2022-10-17T12:07:49.287Z,20.80
2022-10-17T12:10:29.254Z,20.70
2022-10-17T12:12:57.115Z,20.80
2022-10-17T12:15:32.060Z,20.80
2022-10-17T12:18:02.571Z,22.00
2022-10-17T12:20:36.930Z,20.90
2022-10-17T12:23:28.340Z,20.90
2022-10-17T12:26:03.086Z,20.90
2022-10-17T12:28:34.497Z,20.90
2022-10-17T12:31:05.810Z,23.90
2022-10-17T12:33:36.520Z,21.00
2022-10-17T12:36:47.853Z,21.00
2022-10-17T12:39:45.367Z,21.00
2022-10-17T12:42:49.301Z,21.00
2022-10-17T12:45:49.072Z,21.00
2022-10-17T12:48:50.327Z,20.90
2022-10-17T12:51:36.389Z,20.90
2022-10-17T12:54:13.461Z,23.90
2022-10-17T12:56:43.710Z,21.00
2022-10-17T12:59:18.179Z,21.00
2022-10-17T13:01:49.009Z,20.90
2022-10-17T13:04:17.727Z,20.80
2022-10-17T13:06:48.766Z,20.90
2022-10-17T13:09:31.915Z,20.90
2022-10-17T13:12:02.538Z,20.90
2022-10-17T13:14:34.826Z,22.10
2022-10-17T13:17:04.505Z,20.90
2022-10-17T13:19:41.929Z,20.90
2022-10-17T13:22:17.576Z,20.80
2022-10-17T13:24:46.269Z,20.90
2022-10-17T13:27:28.394Z,20.90
2022-10-17T13:29:59.046Z,20.90
2022-10-17T13:32:35.722Z,20.90
2022-10-17T13:35:09.762Z,20.90
2022-10-17T13:37:40.464Z,21.00
2022-10-17T13:40:31.121Z,21.00
2022-10-17T13:43:05.916Z,21.00
2022-10-17T13:45:37.868Z,21.00
2022-10-17T13:48:10.059Z,21.00
2022-10-17T13:50:44.492Z,21.00
2022-10-17T13:53:20.541Z,24.00
2022-10-17T13:56:15.852Z,21.00
2022-10-17T13:58:47.396Z,21.00
2022-10-17T14:01:17.470Z,21.00
2022-10-17T14:03:49.133Z,21.10
2022-10-17T14:06:20.904Z,21.10
2022-10-17T14:08:57.084Z,21.10
2022-10-17T14:11:30.631Z,24.00
2022-10-17T14:14:00.019Z,21.10
2022-10-17T14:16:36.199Z,21.10
2022-10-17T14:19:05.309Z,20.90
2022-10-17T14:21:43.749Z,21.00
2022-10-17T14:24:29.415Z,21.00
2022-10-17T14:26:59.667Z,21.00
2022-10-17T14:29:29.442Z,21.00
2022-10-17T14:32:08.504Z,21.10
2022-10-17T14:34:39.215Z,21.10
2022-10-17T14:37:11.774Z,21.20
2022-10-17T14:39:40.484Z,21.20
2022-10-17T14:42:08.577Z,21.20
2022-10-17T14:44:37.300Z,21.20
2022-10-17T14:47:37.997Z,21.20
2022-10-17T14:50:06.403Z,21.30
2022-10-17T14:52:35.475Z,21.30
2022-10-17T14:55:26.879Z,21.30
2022-10-17T14:57:54.795Z,21.30
2022-10-17T15:00:24.017Z,21.40
2022-10-17T15:02:55.399Z,21.40
2022-10-17T15:05:24.943Z,21.40
2022-10-17T15:07:53.410Z,21.30
2022-10-17T15:10:33.683Z,21.40
2022-10-17T15:13:26.625Z,21.40
2022-10-17T15:15:51.873Z,21.30
2022-10-17T15:18:21.668Z,21.30
2022-10-17T15:20:55.383Z,22.90
2022-10-17T15:23:32.656Z,21.30
2022-10-17T15:26:02.082Z,21.30
2022-10-17T15:28:30.015Z,21.30
2022-10-17T15:30:58.087Z,21.30
2022-10-17T15:33:27.360Z,21.30
2022-10-17T15:35:55.504Z,21.30
2022-10-17T15:38:23.425Z,21.30
2022-10-17T15:40:52.009Z,21.30
2022-10-17T15:43:20.184Z,21.30
2022-10-17T15:45:48.400Z,23.60
2022-10-17T15:48:20.891Z,21.20
2022-10-17T15:50:50.251Z,21.20
2022-10-17T15:53:18.002Z,21.20
2022-10-17T15:55:46.091Z,21.20
2022-10-17T15:58:16.991Z,21.20
2022-10-17T16:00:44.979Z,21.20
2022-10-17T16:03:14.064Z,21.20
2022-10-17T16:05:42.197Z,21.10
2022-10-17T16:08:11.315Z,21.10
2022-10-17T16:10:41.552Z,21.10
2022-10-17T16:13:17.099Z,21.10
2022-10-17T16:15:44.859Z,21.00
2022-10-17T16:18:12.774Z,21.00
2022-10-17T16:20:40.829Z,21.00
2022-10-17T16:23:08.859Z,21.00
2022-10-17T16:25:39.959Z,20.90
2022-10-17T16:28:09.193Z,20.90
2022-10-17T16:30:44.799Z,20.90
2022-10-17T16:33:13.361Z,20.80
2022-10-17T16:35:41.250Z,20.80
2022-10-17T16:38:09.348Z,20.70
2022-10-17T16:40:41.311Z,20.70
2022-10-17T16:43:11.754Z,20.70
2022-10-17T16:45:40.126Z,20.60
2022-10-17T16:48:08.264Z,20.60
2022-10-17T16:50:40.427Z,21.90
2022-10-17T16:53:08.248Z,20.50
2022-10-17T16:55:36.030Z,20.50
2022-10-17T16:58:05.288Z,23.60
2022-10-17T17:00:33.138Z,20.40
2022-10-17T17:03:02.611Z,20.40
2022-10-17T17:05:30.507Z,20.40
2022-10-17T17:07:59.284Z,20.30
2022-10-17T17:10:27.109Z,20.20
2022-10-17T17:12:55.584Z,20.20
2022-10-17T17:15:24.674Z,20.20
2022-10-17T17:17:55.539Z,21.30
2022-10-17T17:20:23.851Z,20.20
2022-10-17T17:22:52.393Z,20.20
2022-10-17T17:25:20.278Z,20.10
2022-10-17T17:27:48.085Z,20.10
2022-10-17T17:30:16.345Z,20.10
2022-10-17T17:32:45.518Z,20.10
2022-10-17T17:35:13.321Z,20.10
2022-10-17T17:37:41.199Z,20.00
2022-10-17T17:40:10.051Z,22.50
2022-10-17T17:42:37.860Z,20.00
2022-10-17T17:45:06.658Z,20.00
2022-10-17T17:47:34.511Z,20.00
2022-10-17T17:50:04.022Z,19.90
2022-10-17T17:52:32.122Z,19.90
2022-10-17T17:55:00.090Z,19.90
2022-10-17T17:57:29.936Z,19.90
2022-10-17T17:59:57.824Z,18.70
2022-10-17T18:02:25.857Z,19.90
2022-10-17T18:04:53.695Z,19.90
2022-10-17T18:07:22.928Z,19.90
2022-10-17T18:09:51.734Z,22.60
2022-10-17T18:12:21.708Z,19.90
2022-10-17T18:14:49.761Z,19.80
2022-10-17T18:17:17.551Z,19.90
2022-10-17T18:19:45.505Z,19.80
2022-10-17T18:22:13.277Z,19.80
2022-10-17T18:24:42.679Z,19.80
2022-10-17T18:27:12.607Z,19.80
2022-10-17T18:29:40.686Z,19.80
2022-10-17T18:32:08.550Z,19.80
2022-10-17T18:34:36.382Z,19.80
2022-10-17T18:37:04.532Z,19.70
2022-10-17T18:39:32.411Z,19.70
2022-10-17T18:42:01.706Z,21.80
2022-10-17T18:44:29.691Z,19.70
2022-10-17T18:47:02.915Z,19.70
2022-10-17T18:49:32.367Z,19.70
2022-10-17T18:52:00.502Z,19.70
2022-10-17T18:54:29.225Z,19.70
2022-10-17T18:56:57.535Z,19.70
2022-10-17T18:59:27.146Z,19.70
2022-10-17T19:01:55.091Z,23.10
2022-10-17T19:04:23.190Z,19.70
2022-10-17T19:06:50.989Z,22.80
2022-10-17T19:09:19.152Z,19.70
2022-10-17T19:11:46.989Z,19.70
2022-10-17T19:14:15.226Z,19.70
2022-10-17T19:16:48.979Z,19.60
2022-10-17T19:19:18.768Z,19.60
2022-10-17T19:21:47.305Z,19.70
2022-10-17T19:24:17.326Z,19.60
2022-10-17T19:26:46.851Z,19.60
2022-10-17T19:29:15.903Z,20.40
2022-10-17T19:31:45.602Z,19.60
2022-10-17T19:34:14.488Z,19.60
2022-10-17T19:36:43.266Z,19.60
2022-10-17T19:39:13.165Z,19.50
2022-10-17T19:41:41.761Z,21.00
2022-10-17T19:44:10.284Z,19.50
2022-10-17T19:46:38.340Z,19.50
2022-10-17T19:49:08.108Z,19.50
2022-10-17T19:51:36.093Z,19.50
2022-10-17T19:54:04.300Z,19.50
2022-10-17T19:56:37.577Z,19.50
2022-10-17T19:59:06.954Z,19.50
2022-10-17T20:01:38.624Z,19.50
2022-10-17T20:04:08.724Z,21.40
2022-10-17T20:06:36.793Z,19.50
2022-10-17T20:09:04.805Z,19.50
2022-10-17T20:11:33.074Z,19.40
2022-10-17T20:14:01.926Z,19.50
2022-10-17T20:16:31.423Z,19.50
2022-10-17T20:19:03.838Z,19.50
2022-10-17T20:21:34.985Z,19.50
2022-10-17T20:24:04.443Z,19.50
2022-10-17T20:26:38.304Z,19.50
2022-10-17T20:29:10.910Z,19.50
2022-10-17T20:31:39.613Z,19.50
2022-10-17T20:34:07.417Z,19.60
2022-10-17T20:36:37.427Z,19.90
2022-10-17T20:39:06.250Z,19.50
2022-10-17T20:41:34.477Z,19.50
2022-10-17T20:44:02.491Z,19.50
2022-10-17T20:46:36.911Z,19.50
2022-10-17T20:49:06.956Z,19.50
2022-10-17T20:51:36.815Z,19.50
2022-10-17T20:54:05.122Z,19.50
2022-10-17T20:56:34.288Z,21.30
2022-10-17T20:59:05.106Z,19.50
2022-10-17T21:01:34.726Z,19.50
2022-10-17T21:04:27.137Z,19.40
2022-10-17T21:06:53.590Z,19.50
2022-10-17T21:09:21.922Z,19.40
2022-10-17T21:11:51.208Z,19.40
2022-10-17T21:14:19.577Z,19.40
2022-10-17T21:16:47.622Z,19.40
2022-10-17T21:19:16.750Z,19.40
2022-10-17T21:21:46.484Z,19.40
2022-10-17T21:24:18.049Z,19.40
2022-10-17T21:26:47.015Z,19.40
2022-10-17T21:29:15.801Z,19.40
2022-10-17T21:31:45.040Z,19.40
2022-10-17T21:34:14.854Z,19.30
2022-10-17T21:36:43.881Z,19.30
2022-10-17T21:39:12.876Z,19.20
2022-10-17T21:41:42.972Z,19.10
2022-10-17T21:44:14.817Z,19.10
2022-10-17T21:46:42.843Z,19.20
2022-10-17T21:49:11.769Z,19.20
2022-10-17T21:51:39.939Z,19.20
2022-10-17T21:54:08.459Z,19.20
2022-10-17T21:56:36.505Z,19.20
2022-10-17T21:59:06.744Z,19.20
2022-10-17T22:01:36.409Z,19.20
2022-10-17T22:04:06.662Z,19.10
2022-10-17T22:06:40.781Z,19.10
2022-10-17T22:09:18.613Z,19.10
2022-10-17T22:11:48.228Z,19.00
2022-10-17T22:14:19.704Z,19.00
2022-10-17T22:16:48.666Z,19.00
2022-10-17T22:19:20.820Z,18.90
2022-10-17T22:21:48.804Z,18.90
2022-10-17T22:24:18.770Z,18.90
2022-10-17T22:26:47.245Z,18.80
2022-10-17T22:29:15.379Z,18.80
2022-10-17T22:31:44.711Z,18.80
2022-10-17T22:34:14.306Z,18.80
2022-10-17T22:36:42.593Z,18.70
2022-10-17T22:39:11.276Z,18.70
2022-10-17T22:41:39.126Z,18.70
2022-10-17T22:44:07.630Z,18.70
2022-10-17T22:46:35.655Z,18.70
2022-10-17T22:49:05.072Z,18.60
2022-10-17T22:51:32.960Z,18.60
2022-10-17T22:54:00.774Z,18.60
2022-10-17T22:56:28.652Z,18.60
2022-10-17T22:58:56.540Z,18.50
2022-10-17T23:01:26.520Z,18.50
2022-10-17T23:03:54.609Z,18.50
2022-10-17T23:06:24.211Z,18.50
2022-10-17T23:08:52.155Z,18.50
2022-10-17T23:11:20.686Z,18.40
2022-10-17T23:13:48.741Z,18.40
2022-10-17T23:16:16.813Z,18.40
2022-10-17T23:18:44.653Z,18.40
2022-10-17T23:21:14.146Z,18.40
2022-10-17T23:23:43.390Z,18.40
2022-10-17T23:26:12.698Z,18.40
2022-10-17T23:28:41.103Z,18.40
2022-10-17T23:31:14.942Z,18.30
2022-10-17T23:33:44.693Z,18.30
2022-10-17T23:36:13.565Z,19.10
2022-10-17T23:38:43.770Z,18.30
2022-10-17T23:41:11.996Z,18.30
2022-10-17T23:43:39.980Z,18.30
2022-10-17T23:46:08.316Z,18.30
2022-10-17T23:51:05.393Z,18.20
2022-10-17T23:53:33.632Z,18.20
2022-10-17T23:56:02.808Z,18.20
2022-10-17T23:58:30.838Z,18.20
